sensor_id;sensor_type;location;lat;lon;timestamp;P1;durP1;ratioP1;P2;durP2;ratioP2
64199;SDS011;50516;52.272;5.136;2024-01-27T00:02:04;12.65;;;4.35;;
64199;SDS011;50516;52.272;5.136;2024-01-27T00:04:29;14.77;;;4.32;;
64199;SDS011;50516;52.272;5.136;2024-01-27T00:06:55;25.55;;;5.82;;
64199;SDS011;50516;52.272;5.136;2024-01-27T00:09:20;15.57;;;4.35;;
64199;SDS011;50516;52.272;5.136;2024-01-27T00:11:45;23.73;;;5.50;;
64199;SDS011;50516;52.272;5.136;2024-01-27T00:14:10;15.23;;;4.65;;
64199;SDS011;50516;52.272;5.136;2024-01-27T00:16:36;14.40;;;4.53;;
64199;SDS011;50516;52.272;5.136;2024-01-27T00:19:01;19.08;;;5.68;;
64199;SDS011;50516;52.272;5.136;2024-01-27T00:21:26;16.08;;;4.63;;
64199;SDS011;50516;52.272;5.136;2024-01-27T00:23:52;23.98;;;4.82;;
64199;SDS011;50516;52.272;5.136;2024-01-27T00:26:18;19.27;;;4.78;;
64199;SDS011;50516;52.272;5.136;2024-01-27T00:28:43;14.73;;;4.55;;
64199;SDS011;50516;52.272;5.136;2024-01-27T00:31:09;14.13;;;4.72;;
64199;SDS011;50516;52.272;5.136;2024-01-27T00:33:34;18.25;;;4.70;;
64199;SDS011;50516;52.272;5.136;2024-01-27T00:36:01;19.83;;;4.60;;
64199;SDS011;50516;52.272;5.136;2024-01-27T00:38:26;29.73;;;7.05;;
64199;SDS011;50516;52.272;5.136;2024-01-27T00:40:51;22.88;;;5.30;;
64199;SDS011;50516;52.272;5.136;2024-01-27T00:43:16;17.55;;;4.85;;
64199;SDS011;50516;52.272;5.136;2024-01-27T00:45:42;12.80;;;4.53;;
64199;SDS011;50516;52.272;5.136;2024-01-27T00:48:07;18.60;;;4.57;;
64199;SDS011;50516;52.272;5.136;2024-01-27T00:50:32;17.77;;;4.72;;
64199;SDS011;50516;52.272;5.136;2024-01-27T00:52:58;11.00;;;4.60;;
64199;SDS011;50516;52.272;5.136;2024-01-27T00:55:23;17.10;;;4.10;;
64199;SDS011;50516;52.272;5.136;2024-01-27T00:57:48;25.38;;;5.93;;
64199;SDS011;50516;52.272;5.136;2024-01-27T01:00:14;16.58;;;4.18;;
64199;SDS011;50516;52.272;5.136;2024-01-27T01:02:39;11.30;;;3.70;;
64199;SDS011;50516;52.272;5.136;2024-01-27T01:05:05;18.58;;;4.90;;
64199;SDS011;50516;52.272;5.136;2024-01-27T01:07:31;19.60;;;5.78;;
64199;SDS011;50516;52.272;5.136;2024-01-27T01:09:56;18.27;;;4.80;;
64199;SDS011;50516;52.272;5.136;2024-01-27T01:12:22;19.95;;;5.40;;
64199;SDS011;50516;52.272;5.136;2024-01-27T01:14:47;19.05;;;4.85;;
64199;SDS011;50516;52.272;5.136;2024-01-27T01:17:13;16.38;;;4.22;;
64199;SDS011;50516;52.272;5.136;2024-01-27T01:19:38;14.98;;;4.10;;
64199;SDS011;50516;52.272;5.136;2024-01-27T01:22:05;19.23;;;5.05;;
64199;SDS011;50516;52.272;5.136;2024-01-27T01:24:30;14.02;;;5.30;;
64199;SDS011;50516;52.272;5.136;2024-01-27T01:26:55;15.10;;;4.32;;
64199;SDS011;50516;52.272;5.136;2024-01-27T01:29:21;13.02;;;3.80;;
64199;SDS011;50516;52.272;5.136;2024-01-27T01:31:47;22.17;;;4.90;;
64199;SDS011;50516;52.272;5.136;2024-01-27T01:34:12;21.33;;;3.92;;
64199;SDS011;50516;52.272;5.136;2024-01-27T01:36:37;15.73;;;4.53;;
64199;SDS011;50516;52.272;5.136;2024-01-27T01:39:03;13.75;;;4.38;;
64199;SDS011;50516;52.272;5.136;2024-01-27T01:41:28;11.30;;;4.07;;
64199;SDS011;50516;52.272;5.136;2024-01-27T01:43:53;22.23;;;4.70;;
64199;SDS011;50516;52.272;5.136;2024-01-27T01:46:19;13.07;;;4.00;;
64199;SDS011;50516;52.272;5.136;2024-01-27T01:48:47;25.00;;;5.22;;
64199;SDS011;50516;52.272;5.136;2024-01-27T01:51:12;14.02;;;3.88;;
64199;SDS011;50516;52.272;5.136;2024-01-27T01:53:38;13.63;;;4.97;;
64199;SDS011;50516;52.272;5.136;2024-01-27T01:56:03;14.75;;;4.35;;
64199;SDS011;50516;52.272;5.136;2024-01-27T01:58:29;20.00;;;4.32;;
64199;SDS011;50516;52.272;5.136;2024-01-27T02:00:59;16.65;;;5.43;;
64199;SDS011;50516;52.272;5.136;2024-01-27T02:03:27;21.00;;;5.00;;
64199;SDS011;50516;52.272;5.136;2024-01-27T02:05:52;16.02;;;4.32;;
64199;SDS011;50516;52.272;5.136;2024-01-27T02:08:18;16.63;;;4.68;;
64199;SDS011;50516;52.272;5.136;2024-01-27T02:10:43;17.75;;;4.50;;
64199;SDS011;50516;52.272;5.136;2024-01-27T02:13:16;10.68;;;3.60;;
64199;SDS011;50516;52.272;5.136;2024-01-27T02:15:45;15.50;;;3.72;;
64199;SDS011;50516;52.272;5.136;2024-01-27T02:18:10;15.32;;;5.18;;
64199;SDS011;50516;52.272;5.136;2024-01-27T02:20:36;23.25;;;5.78;;
64199;SDS011;50516;52.272;5.136;2024-01-27T02:23:02;13.65;;;4.82;;
64199;SDS011;50516;52.272;5.136;2024-01-27T02:25:29;19.33;;;4.15;;
64199;SDS011;50516;52.272;5.136;2024-01-27T02:27:55;16.10;;;4.05;;
64199;SDS011;50516;52.272;5.136;2024-01-27T02:30:20;16.38;;;4.30;;
64199;SDS011;50516;52.272;5.136;2024-01-27T02:32:46;16.33;;;4.43;;
64199;SDS011;50516;52.272;5.136;2024-01-27T02:35:11;20.85;;;4.65;;
64199;SDS011;50516;52.272;5.136;2024-01-27T02:37:37;14.30;;;4.57;;
64199;SDS011;50516;52.272;5.136;2024-01-27T02:40:03;20.48;;;4.05;;
64199;SDS011;50516;52.272;5.136;2024-01-27T02:42:28;20.00;;;5.93;;
64199;SDS011;50516;52.272;5.136;2024-01-27T02:44:54;14.25;;;3.92;;
64199;SDS011;50516;52.272;5.136;2024-01-27T02:47:19;20.00;;;4.45;;
64199;SDS011;50516;52.272;5.136;2024-01-27T02:49:44;19.30;;;5.53;;
64199;SDS011;50516;52.272;5.136;2024-01-27T02:52:10;17.67;;;5.10;;
64199;SDS011;50516;52.272;5.136;2024-01-27T02:54:35;22.80;;;4.25;;
64199;SDS011;50516;52.272;5.136;2024-01-27T02:57:00;16.65;;;4.07;;
64199;SDS011;50516;52.272;5.136;2024-01-27T02:59:26;18.42;;;4.35;;
64199;SDS011;50516;52.272;5.136;2024-01-27T03:01:51;20.23;;;3.85;;
64199;SDS011;50516;52.272;5.136;2024-01-27T03:04:16;18.95;;;4.82;;
64199;SDS011;50516;52.272;5.136;2024-01-27T03:06:41;20.17;;;5.55;;
64199;SDS011;50516;52.272;5.136;2024-01-27T03:09:07;15.50;;;4.45;;
64199;SDS011;50516;52.272;5.136;2024-01-27T03:11:32;20.58;;;4.75;;
64199;SDS011;50516;52.272;5.136;2024-01-27T03:13:57;24.00;;;5.28;;
64199;SDS011;50516;52.272;5.136;2024-01-27T03:16:23;17.73;;;3.72;;
64199;SDS011;50516;52.272;5.136;2024-01-27T03:18:48;11.85;;;3.78;;
64199;SDS011;50516;52.272;5.136;2024-01-27T03:21:13;23.63;;;5.00;;
64199;SDS011;50516;52.272;5.136;2024-01-27T03:23:38;24.08;;;4.45;;
64199;SDS011;50516;52.272;5.136;2024-01-27T03:26:04;19.92;;;5.40;;
64199;SDS011;50516;52.272;5.136;2024-01-27T03:28:29;17.60;;;4.97;;
64199;SDS011;50516;52.272;5.136;2024-01-27T03:30:55;19.52;;;4.15;;
64199;SDS011;50516;52.272;5.136;2024-01-27T03:33:20;16.42;;;4.35;;
64199;SDS011;50516;52.272;5.136;2024-01-27T03:35:47;15.50;;;4.20;;
64199;SDS011;50516;52.272;5.136;2024-01-27T03:38:13;21.73;;;4.90;;
64199;SDS011;50516;52.272;5.136;2024-01-27T03:40:38;11.20;;;3.17;;
64199;SDS011;50516;52.272;5.136;2024-01-27T03:43:03;14.38;;;3.60;;
64199;SDS011;50516;52.272;5.136;2024-01-27T03:45:29;13.38;;;4.00;;
64199;SDS011;50516;52.272;5.136;2024-01-27T03:47:54;18.95;;;4.97;;
64199;SDS011;50516;52.272;5.136;2024-01-27T03:50:19;13.43;;;4.53;;
64199;SDS011;50516;52.272;5.136;2024-01-27T03:52:44;17.20;;;3.80;;
64199;SDS011;50516;52.272;5.136;2024-01-27T03:55:10;21.42;;;7.15;;
64199;SDS011;50516;52.272;5.136;2024-01-27T03:57:35;18.10;;;4.38;;
64199;SDS011;50516;52.272;5.136;2024-01-27T04:00:01;12.93;;;3.88;;
64199;SDS011;50516;52.272;5.136;2024-01-27T04:02:26;16.35;;;4.15;;
64199;SDS011;50516;52.272;5.136;2024-01-27T04:04:51;15.77;;;3.97;;
64199;SDS011;50516;52.272;5.136;2024-01-27T04:07:16;13.57;;;4.00;;
64199;SDS011;50516;52.272;5.136;2024-01-27T04:09:42;13.93;;;3.72;;
64199;SDS011;50516;52.272;5.136;2024-01-27T04:12:07;16.80;;;3.85;;
64199;SDS011;50516;52.272;5.136;2024-01-27T04:14:33;26.00;;;5.05;;
64199;SDS011;50516;52.272;5.136;2024-01-27T04:16:58;15.05;;;4.20;;
64199;SDS011;50516;52.272;5.136;2024-01-27T04:19:24;13.65;;;3.60;;
64199;SDS011;50516;52.272;5.136;2024-01-27T04:21:49;16.42;;;4.40;;
64199;SDS011;50516;52.272;5.136;2024-01-27T04:24:14;19.67;;;4.20;;
64199;SDS011;50516;52.272;5.136;2024-01-27T04:26:39;19.73;;;4.53;;
64199;SDS011;50516;52.272;5.136;2024-01-27T04:29:05;17.75;;;4.55;;
64199;SDS011;50516;52.272;5.136;2024-01-27T04:31:30;21.52;;;4.25;;
64199;SDS011;50516;52.272;5.136;2024-01-27T04:33:58;23.40;;;5.40;;
64199;SDS011;50516;52.272;5.136;2024-01-27T04:36:27;13.60;;;3.92;;
64199;SDS011;50516;52.272;5.136;2024-01-27T04:38:53;15.70;;;4.40;;
64199;SDS011;50516;52.272;5.136;2024-01-27T04:41:19;19.30;;;3.92;;
64199;SDS011;50516;52.272;5.136;2024-01-27T04:43:44;16.77;;;4.70;;
64199;SDS011;50516;52.272;5.136;2024-01-27T04:46:09;17.88;;;5.25;;
64199;SDS011;50516;52.272;5.136;2024-01-27T04:48:35;19.15;;;5.53;;
64199;SDS011;50516;52.272;5.136;2024-01-27T04:51:00;22.50;;;4.95;;
64199;SDS011;50516;52.272;5.136;2024-01-27T04:53:25;14.48;;;4.88;;
64199;SDS011;50516;52.272;5.136;2024-01-27T04:55:50;14.75;;;3.95;;
64199;SDS011;50516;52.272;5.136;2024-01-27T04:58:16;20.27;;;4.70;;
64199;SDS011;50516;52.272;5.136;2024-01-27T05:00:41;17.42;;;4.68;;
64199;SDS011;50516;52.272;5.136;2024-01-27T05:03:06;13.57;;;4.45;;
64199;SDS011;50516;52.272;5.136;2024-01-27T05:05:35;15.65;;;5.28;;
64199;SDS011;50516;52.272;5.136;2024-01-27T05:08:00;17.13;;;4.50;;
64199;SDS011;50516;52.272;5.136;2024-01-27T05:10:26;17.30;;;4.93;;
64199;SDS011;50516;52.272;5.136;2024-01-27T05:12:51;14.38;;;3.95;;
64199;SDS011;50516;52.272;5.136;2024-01-27T05:15:16;19.30;;;6.00;;
64199;SDS011;50516;52.272;5.136;2024-01-27T05:17:42;13.63;;;4.93;;
64199;SDS011;50516;52.272;5.136;2024-01-27T05:20:07;12.30;;;5.00;;
64199;SDS011;50516;52.272;5.136;2024-01-27T05:22:32;17.02;;;5.78;;
64199;SDS011;50516;52.272;5.136;2024-01-27T05:24:58;22.58;;;5.68;;
64199;SDS011;50516;52.272;5.136;2024-01-27T05:27:23;16.95;;;5.47;;
64199;SDS011;50516;52.272;5.136;2024-01-27T05:29:48;18.30;;;5.65;;
64199;SDS011;50516;52.272;5.136;2024-01-27T05:32:14;20.38;;;6.50;;
64199;SDS011;50516;52.272;5.136;2024-01-27T05:34:40;19.67;;;7.43;;
64199;SDS011;50516;52.272;5.136;2024-01-27T05:37:05;16.67;;;6.60;;
64199;SDS011;50516;52.272;5.136;2024-01-27T05:39:31;19.58;;;6.70;;
64199;SDS011;50516;52.272;5.136;2024-01-27T05:41:57;20.13;;;6.40;;
64199;SDS011;50516;52.272;5.136;2024-01-27T05:44:22;17.13;;;7.57;;
64199;SDS011;50516;52.272;5.136;2024-01-27T05:46:48;16.58;;;6.47;;
64199;SDS011;50516;52.272;5.136;2024-01-27T05:49:13;16.73;;;6.50;;
64199;SDS011;50516;52.272;5.136;2024-01-27T05:51:38;23.23;;;8.65;;
64199;SDS011;50516;52.272;5.136;2024-01-27T05:54:04;23.58;;;8.80;;
64199;SDS011;50516;52.272;5.136;2024-01-27T05:56:29;19.33;;;7.38;;
64199;SDS011;50516;52.272;5.136;2024-01-27T05:58:54;25.73;;;8.02;;
64199;SDS011;50516;52.272;5.136;2024-01-27T06:01:20;27.02;;;9.07;;
64199;SDS011;50516;52.272;5.136;2024-01-27T06:03:45;19.80;;;8.48;;
64199;SDS011;50516;52.272;5.136;2024-01-27T06:06:10;20.85;;;8.02;;
64199;SDS011;50516;52.272;5.136;2024-01-27T06:08:36;20.23;;;8.18;;
64199;SDS011;50516;52.272;5.136;2024-01-27T06:11:01;30.10;;;8.57;;
64199;SDS011;50516;52.272;5.136;2024-01-27T06:13:28;21.90;;;8.75;;
64199;SDS011;50516;52.272;5.136;2024-01-27T06:15:53;18.48;;;7.82;;
64199;SDS011;50516;52.272;5.136;2024-01-27T06:18:18;22.10;;;8.18;;
64199;SDS011;50516;52.272;5.136;2024-01-27T06:20:44;18.83;;;8.75;;
64199;SDS011;50516;52.272;5.136;2024-01-27T06:23:09;29.70;;;10.10;;
64199;SDS011;50516;52.272;5.136;2024-01-27T06:25:34;28.65;;;9.60;;
64199;SDS011;50516;52.272;5.136;2024-01-27T06:28:00;22.20;;;8.52;;
64199;SDS011;50516;52.272;5.136;2024-01-27T06:30:25;22.35;;;9.00;;
64199;SDS011;50516;52.272;5.136;2024-01-27T06:32:50;19.90;;;8.73;;
64199;SDS011;50516;52.272;5.136;2024-01-27T06:35:16;20.10;;;8.45;;
64199;SDS011;50516;52.272;5.136;2024-01-27T06:37:41;24.33;;;9.77;;
64199;SDS011;50516;52.272;5.136;2024-01-27T06:40:06;20.42;;;9.10;;
64199;SDS011;50516;52.272;5.136;2024-01-27T06:42:34;27.15;;;10.30;;
64199;SDS011;50516;52.272;5.136;2024-01-27T06:44:59;23.58;;;11.07;;
64199;SDS011;50516;52.272;5.136;2024-01-27T06:47:24;25.95;;;10.00;;
64199;SDS011;50516;52.272;5.136;2024-01-27T06:49:49;21.70;;;8.77;;
64199;SDS011;50516;52.272;5.136;2024-01-27T06:52:15;18.25;;;8.20;;
64199;SDS011;50516;52.272;5.136;2024-01-27T06:54:40;21.00;;;8.13;;
64199;SDS011;50516;52.272;5.136;2024-01-27T06:57:17;19.75;;;7.80;;
64199;SDS011;50516;52.272;5.136;2024-01-27T06:59:44;19.70;;;7.82;;
64199;SDS011;50516;52.272;5.136;2024-01-27T07:02:09;20.15;;;7.63;;
64199;SDS011;50516;52.272;5.136;2024-01-27T07:04:38;23.33;;;9.60;;
64199;SDS011;50516;52.272;5.136;2024-01-27T07:07:04;21.80;;;8.70;;
64199;SDS011;50516;52.272;5.136;2024-01-27T07:09:29;17.50;;;7.93;;
64199;SDS011;50516;52.272;5.136;2024-01-27T07:11:54;29.23;;;8.38;;
64199;SDS011;50516;52.272;5.136;2024-01-27T07:14:20;14.60;;;8.35;;
64199;SDS011;50516;52.272;5.136;2024-01-27T07:16:45;22.77;;;8.48;;
64199;SDS011;50516;52.272;5.136;2024-01-27T07:19:10;19.00;;;8.63;;
64199;SDS011;50516;52.272;5.136;2024-01-27T07:21:36;19.98;;;7.50;;
64199;SDS011;50516;52.272;5.136;2024-01-27T07:24:01;20.25;;;7.68;;
64199;SDS011;50516;52.272;5.136;2024-01-27T07:26:28;24.55;;;8.25;;
64199;SDS011;50516;52.272;5.136;2024-01-27T07:28:53;18.70;;;8.43;;
64199;SDS011;50516;52.272;5.136;2024-01-27T07:31:19;19.17;;;8.40;;
64199;SDS011;50516;52.272;5.136;2024-01-27T07:33:45;19.83;;;7.65;;
64199;SDS011;50516;52.272;5.136;2024-01-27T07:36:10;19.05;;;7.93;;
64199;SDS011;50516;52.272;5.136;2024-01-27T07:38:36;15.23;;;6.68;;
64199;SDS011;50516;52.272;5.136;2024-01-27T07:41:02;16.30;;;6.85;;
64199;SDS011;50516;52.272;5.136;2024-01-27T07:43:27;21.73;;;8.65;;
64199;SDS011;50516;52.272;5.136;2024-01-27T07:45:52;17.25;;;6.90;;
64199;SDS011;50516;52.272;5.136;2024-01-27T07:48:18;20.67;;;7.57;;
64199;SDS011;50516;52.272;5.136;2024-01-27T07:50:44;17.17;;;6.85;;
64199;SDS011;50516;52.272;5.136;2024-01-27T07:53:13;15.57;;;7.35;;
64199;SDS011;50516;52.272;5.136;2024-01-27T07:55:38;18.30;;;7.25;;
64199;SDS011;50516;52.272;5.136;2024-01-27T07:58:04;21.25;;;8.23;;
64199;SDS011;50516;52.272;5.136;2024-01-27T08:00:30;12.18;;;6.03;;
64199;SDS011;50516;52.272;5.136;2024-01-27T08:02:56;17.33;;;7.05;;
64199;SDS011;50516;52.272;5.136;2024-01-27T08:05:21;18.55;;;6.80;;
64199;SDS011;50516;52.272;5.136;2024-01-27T08:07:46;18.67;;;6.63;;
64199;SDS011;50516;52.272;5.136;2024-01-27T08:10:12;19.30;;;7.80;;
64199;SDS011;50516;52.272;5.136;2024-01-27T08:12:37;19.70;;;7.80;;
64199;SDS011;50516;52.272;5.136;2024-01-27T08:15:03;27.70;;;8.95;;
64199;SDS011;50516;52.272;5.136;2024-01-27T08:17:29;19.98;;;8.05;;
64199;SDS011;50516;52.272;5.136;2024-01-27T08:19:54;20.40;;;8.32;;
64199;SDS011;50516;52.272;5.136;2024-01-27T08:22:19;22.52;;;7.45;;
64199;SDS011;50516;52.272;5.136;2024-01-27T08:24:45;19.85;;;8.52;;
64199;SDS011;50516;52.272;5.136;2024-01-27T08:27:10;21.05;;;7.70;;
64199;SDS011;50516;52.272;5.136;2024-01-27T08:29:35;18.77;;;8.40;;
64199;SDS011;50516;52.272;5.136;2024-01-27T08:32:01;16.70;;;7.30;;
64199;SDS011;50516;52.272;5.136;2024-01-27T08:34:26;17.95;;;7.82;;
64199;SDS011;50516;52.272;5.136;2024-01-27T08:36:51;27.58;;;8.43;;
64199;SDS011;50516;52.272;5.136;2024-01-27T08:39:17;18.55;;;8.15;;
64199;SDS011;50516;52.272;5.136;2024-01-27T08:41:42;20.42;;;7.22;;
64199;SDS011;50516;52.272;5.136;2024-01-27T08:44:08;24.38;;;7.68;;
64199;SDS011;50516;52.272;5.136;2024-01-27T08:46:34;20.50;;;7.88;;
64199;SDS011;50516;52.272;5.136;2024-01-27T08:48:59;18.73;;;7.10;;
64199;SDS011;50516;52.272;5.136;2024-01-27T08:51:24;26.42;;;8.32;;
64199;SDS011;50516;52.272;5.136;2024-01-27T08:53:49;24.02;;;7.93;;
64199;SDS011;50516;52.272;5.136;2024-01-27T08:56:15;28.52;;;8.18;;
64199;SDS011;50516;52.272;5.136;2024-01-27T08:58:41;20.02;;;7.80;;
64199;SDS011;50516;52.272;5.136;2024-01-27T09:01:07;19.58;;;7.18;;
64199;SDS011;50516;52.272;5.136;2024-01-27T09:03:34;22.00;;;8.43;;
64199;SDS011;50516;52.272;5.136;2024-01-27T09:06:00;17.48;;;7.07;;
64199;SDS011;50516;52.272;5.136;2024-01-27T09:08:25;18.30;;;8.27;;
64199;SDS011;50516;52.272;5.136;2024-01-27T09:10:50;25.45;;;8.60;;
64199;SDS011;50516;52.272;5.136;2024-01-27T09:13:16;20.90;;;9.13;;
64199;SDS011;50516;52.272;5.136;2024-01-27T09:15:41;20.65;;;8.10;;
64199;SDS011;50516;52.272;5.136;2024-01-27T09:18:07;21.98;;;8.57;;
64199;SDS011;50516;52.272;5.136;2024-01-27T09:20:32;21.98;;;9.02;;
64199;SDS011;50516;52.272;5.136;2024-01-27T09:22:58;21.73;;;7.60;;
64199;SDS011;50516;52.272;5.136;2024-01-27T09:25:23;18.70;;;7.70;;
64199;SDS011;50516;52.272;5.136;2024-01-27T09:27:49;24.70;;;8.48;;
64199;SDS011;50516;52.272;5.136;2024-01-27T09:30:15;23.13;;;8.23;;
64199;SDS011;50516;52.272;5.136;2024-01-27T09:32:40;17.83;;;7.47;;
64199;SDS011;50516;52.272;5.136;2024-01-27T09:35:05;24.10;;;7.85;;
64199;SDS011;50516;52.272;5.136;2024-01-27T09:37:31;23.88;;;7.90;;
64199;SDS011;50516;52.272;5.136;2024-01-27T09:39:57;23.27;;;8.70;;
64199;SDS011;50516;52.272;5.136;2024-01-27T09:42:22;20.65;;;7.47;;
64199;SDS011;50516;52.272;5.136;2024-01-27T09:44:48;16.95;;;8.05;;
64199;SDS011;50516;52.272;5.136;2024-01-27T09:47:15;22.23;;;9.02;;
64199;SDS011;50516;52.272;5.136;2024-01-27T09:49:41;19.00;;;7.38;;
64199;SDS011;50516;52.272;5.136;2024-01-27T09:52:07;19.65;;;7.65;;
64199;SDS011;50516;52.272;5.136;2024-01-27T09:54:33;20.75;;;7.82;;
64199;SDS011;50516;52.272;5.136;2024-01-27T09:56:59;28.45;;;8.55;;
64199;SDS011;50516;52.272;5.136;2024-01-27T09:59:25;21.38;;;7.60;;
64199;SDS011;50516;52.272;5.136;2024-01-27T10:01:52;19.42;;;7.82;;
64199;SDS011;50516;52.272;5.136;2024-01-27T10:04:18;21.10;;;8.38;;
64199;SDS011;50516;52.272;5.136;2024-01-27T10:06:45;21.17;;;8.07;;
64199;SDS011;50516;52.272;5.136;2024-01-27T10:09:13;22.25;;;7.65;;
64199;SDS011;50516;52.272;5.136;2024-01-27T10:11:39;15.95;;;7.30;;
64199;SDS011;50516;52.272;5.136;2024-01-27T10:14:10;18.05;;;6.95;;
64199;SDS011;50516;52.272;5.136;2024-01-27T10:16:42;21.73;;;7.95;;
64199;SDS011;50516;52.272;5.136;2024-01-27T10:19:17;19.60;;;7.68;;
64199;SDS011;50516;52.272;5.136;2024-01-27T10:21:46;19.98;;;7.80;;
64199;SDS011;50516;52.272;5.136;2024-01-27T10:24:12;18.27;;;7.78;;
64199;SDS011;50516;52.272;5.136;2024-01-27T10:26:38;25.00;;;7.13;;
64199;SDS011;50516;52.272;5.136;2024-01-27T10:29:04;25.52;;;8.60;;
64199;SDS011;50516;52.272;5.136;2024-01-27T10:31:29;17.63;;;8.10;;
64199;SDS011;50516;52.272;5.136;2024-01-27T10:33:56;21.60;;;7.75;;
64199;SDS011;50516;52.272;5.136;2024-01-27T10:36:25;23.20;;;9.02;;
64199;SDS011;50516;52.272;5.136;2024-01-27T10:38:53;22.48;;;8.35;;
64199;SDS011;50516;52.272;5.136;2024-01-27T10:41:22;21.52;;;7.57;;
64199;SDS011;50516;52.272;5.136;2024-01-27T10:43:49;21.90;;;7.22;;
64199;SDS011;50516;52.272;5.136;2024-01-27T10:46:17;19.95;;;7.22;;
64199;SDS011;50516;52.272;5.136;2024-01-27T10:48:45;22.33;;;8.40;;
64199;SDS011;50516;52.272;5.136;2024-01-27T10:51:24;16.25;;;7.05;;
64199;SDS011;50516;52.272;5.136;2024-01-27T10:53:56;16.40;;;7.25;;
64199;SDS011;50516;52.272;5.136;2024-01-27T10:56:27;19.48;;;7.78;;
64199;SDS011;50516;52.272;5.136;2024-01-27T10:58:52;21.55;;;8.05;;
64199;SDS011;50516;52.272;5.136;2024-01-27T11:01:18;22.83;;;9.77;;
64199;SDS011;50516;52.272;5.136;2024-01-27T11:03:47;21.50;;;8.13;;
64199;SDS011;50516;52.272;5.136;2024-01-27T11:06:13;20.67;;;7.93;;
64199;SDS011;50516;52.272;5.136;2024-01-27T11:08:40;15.93;;;8.38;;
64199;SDS011;50516;52.272;5.136;2024-01-27T11:11:06;23.90;;;9.00;;
64199;SDS011;50516;52.272;5.136;2024-01-27T11:13:31;17.60;;;7.85;;
64199;SDS011;50516;52.272;5.136;2024-01-27T11:15:58;20.83;;;8.40;;
64199;SDS011;50516;52.272;5.136;2024-01-27T11:18:24;24.33;;;8.60;;
64199;SDS011;50516;52.272;5.136;2024-01-27T11:20:53;27.27;;;9.15;;
64199;SDS011;50516;52.272;5.136;2024-01-27T11:23:19;23.50;;;8.73;;
64199;SDS011;50516;52.272;5.136;2024-01-27T11:25:45;23.08;;;8.55;;
64199;SDS011;50516;52.272;5.136;2024-01-27T11:28:11;25.05;;;8.90;;
64199;SDS011;50516;52.272;5.136;2024-01-27T11:30:38;26.98;;;9.02;;
64199;SDS011;50516;52.272;5.136;2024-01-27T11:33:05;23.35;;;7.57;;
64199;SDS011;50516;52.272;5.136;2024-01-27T11:35:30;22.38;;;8.13;;
64199;SDS011;50516;52.272;5.136;2024-01-27T11:37:55;24.90;;;7.32;;
64199;SDS011;50516;52.272;5.136;2024-01-27T11:40:21;19.33;;;7.03;;
64199;SDS011;50516;52.272;5.136;2024-01-27T11:43:01;23.73;;;7.22;;
64199;SDS011;50516;52.272;5.136;2024-01-27T11:45:27;28.52;;;8.15;;
64199;SDS011;50516;52.272;5.136;2024-01-27T11:47:54;24.05;;;8.88;;
64199;SDS011;50516;52.272;5.136;2024-01-27T11:50:21;16.08;;;6.82;;
64199;SDS011;50516;52.272;5.136;2024-01-27T11:52:46;18.00;;;7.63;;
64199;SDS011;50516;52.272;5.136;2024-01-27T11:55:12;17.70;;;7.60;;
64199;SDS011;50516;52.272;5.136;2024-01-27T11:57:40;23.02;;;7.38;;
64199;SDS011;50516;52.272;5.136;2024-01-27T12:00:05;17.40;;;7.15;;
64199;SDS011;50516;52.272;5.136;2024-01-27T12:02:31;19.65;;;7.30;;
64199;SDS011;50516;52.272;5.136;2024-01-27T12:04:56;19.70;;;6.43;;
64199;SDS011;50516;52.272;5.136;2024-01-27T12:07:22;23.50;;;6.50;;
64199;SDS011;50516;52.272;5.136;2024-01-27T12:09:50;23.55;;;6.38;;
64199;SDS011;50516;52.272;5.136;2024-01-27T12:12:16;17.35;;;6.10;;
64199;SDS011;50516;52.272;5.136;2024-01-27T12:14:44;24.13;;;6.90;;
64199;SDS011;50516;52.272;5.136;2024-01-27T12:17:10;23.52;;;6.97;;
64199;SDS011;50516;52.272;5.136;2024-01-27T12:19:39;17.65;;;7.30;;
64199;SDS011;50516;52.272;5.136;2024-01-27T12:22:20;19.17;;;7.05;;
64199;SDS011;50516;52.272;5.136;2024-01-27T12:24:47;19.48;;;6.50;;
64199;SDS011;50516;52.272;5.136;2024-01-27T12:27:12;23.42;;;7.05;;
64199;SDS011;50516;52.272;5.136;2024-01-27T12:29:37;15.95;;;6.95;;
64199;SDS011;50516;52.272;5.136;2024-01-27T12:32:06;17.33;;;7.32;;
64199;SDS011;50516;52.272;5.136;2024-01-27T12:34:32;21.63;;;7.35;;
64199;SDS011;50516;52.272;5.136;2024-01-27T12:36:57;21.50;;;6.78;;
64199;SDS011;50516;52.272;5.136;2024-01-27T12:39:22;17.35;;;6.60;;
64199;SDS011;50516;52.272;5.136;2024-01-27T12:41:48;19.42;;;7.03;;
64199;SDS011;50516;52.272;5.136;2024-01-27T12:44:13;18.38;;;6.35;;
64199;SDS011;50516;52.272;5.136;2024-01-27T12:46:39;22.73;;;8.07;;
64199;SDS011;50516;52.272;5.136;2024-01-27T12:49:04;26.13;;;7.57;;
64199;SDS011;50516;52.272;5.136;2024-01-27T12:51:30;19.45;;;6.65;;
64199;SDS011;50516;52.272;5.136;2024-01-27T12:53:55;22.08;;;7.13;;
64199;SDS011;50516;52.272;5.136;2024-01-27T12:56:20;18.55;;;5.88;;
64199;SDS011;50516;52.272;5.136;2024-01-27T12:58:46;17.30;;;6.85;;
64199;SDS011;50516;52.272;5.136;2024-01-27T13:01:12;20.23;;;7.18;;
64199;SDS011;50516;52.272;5.136;2024-01-27T13:03:37;18.42;;;6.93;;
64199;SDS011;50516;52.272;5.136;2024-01-27T13:06:02;17.90;;;6.32;;
64199;SDS011;50516;52.272;5.136;2024-01-27T13:08:28;19.73;;;6.70;;
64199;SDS011;50516;52.272;5.136;2024-01-27T13:10:53;19.65;;;6.95;;
64199;SDS011;50516;52.272;5.136;2024-01-27T13:13:19;25.45;;;7.40;;
64199;SDS011;50516;52.272;5.136;2024-01-27T13:15:45;18.65;;;6.90;;
64199;SDS011;50516;52.272;5.136;2024-01-27T13:18:10;20.42;;;7.82;;
64199;SDS011;50516;52.272;5.136;2024-01-27T13:20:36;26.48;;;7.20;;
64199;SDS011;50516;52.272;5.136;2024-01-27T13:23:01;25.13;;;7.05;;
64199;SDS011;50516;52.272;5.136;2024-01-27T13:25:27;22.17;;;7.13;;
64199;SDS011;50516;52.272;5.136;2024-01-27T13:27:52;20.27;;;5.95;;
64199;SDS011;50516;52.272;5.136;2024-01-27T13:30:18;18.95;;;6.50;;
64199;SDS011;50516;52.272;5.136;2024-01-27T13:32:43;21.85;;;6.80;;
64199;SDS011;50516;52.272;5.136;2024-01-27T13:35:09;19.73;;;6.60;;
64199;SDS011;50516;52.272;5.136;2024-01-27T13:37:35;19.33;;;7.55;;
64199;SDS011;50516;52.272;5.136;2024-01-27T13:40:01;22.40;;;6.95;;
64199;SDS011;50516;52.272;5.136;2024-01-27T13:42:27;17.73;;;6.47;;
64199;SDS011;50516;52.272;5.136;2024-01-27T13:44:53;24.13;;;6.93;;
64199;SDS011;50516;52.272;5.136;2024-01-27T13:47:18;21.45;;;6.72;;
64199;SDS011;50516;52.272;5.136;2024-01-27T13:49:44;22.80;;;7.63;;
64199;SDS011;50516;52.272;5.136;2024-01-27T13:52:09;23.48;;;6.82;;
64199;SDS011;50516;52.272;5.136;2024-01-27T13:54:35;20.33;;;7.88;;
64199;SDS011;50516;52.272;5.136;2024-01-27T13:57:01;28.77;;;8.25;;
64199;SDS011;50516;52.272;5.136;2024-01-27T13:59:27;22.15;;;6.55;;
64199;SDS011;50516;52.272;5.136;2024-01-27T14:01:53;24.70;;;7.32;;
64199;SDS011;50516;52.272;5.136;2024-01-27T14:04:18;16.23;;;7.15;;
64199;SDS011;50516;52.272;5.136;2024-01-27T14:06:44;22.95;;;7.47;;
64199;SDS011;50516;52.272;5.136;2024-01-27T14:09:09;16.08;;;6.25;;
64199;SDS011;50516;52.272;5.136;2024-01-27T14:11:35;18.45;;;6.75;;
64199;SDS011;50516;52.272;5.136;2024-01-27T14:14:00;20.40;;;7.22;;
64199;SDS011;50516;52.272;5.136;2024-01-27T14:16:25;23.50;;;7.13;;
64199;SDS011;50516;52.272;5.136;2024-01-27T14:18:51;18.05;;;6.97;;
64199;SDS011;50516;52.272;5.136;2024-01-27T14:21:16;24.73;;;7.28;;
64199;SDS011;50516;52.272;5.136;2024-01-27T14:23:41;21.75;;;6.78;;
64199;SDS011;50516;52.272;5.136;2024-01-27T14:26:07;17.73;;;6.05;;